sensor_id;sensor_type;location;lat;lon;timestamp;pressure;altitude;pressure_sealevel;temperature;humidity
37068;BME280;22982;42.848;25.468;2023-02-28T00:01:58;96862.38;;;6.13;100.00
37068;BME280;22982;42.848;25.468;2023-02-28T00:07:00;96877.41;;;6.30;100.00
37068;BME280;22982;42.848;25.468;2023-02-28T00:12:03;96894.34;;;6.43;100.00
37068;BME280;22982;42.848;25.468;2023-02-28T00:17:12;96897.34;;;6.58;100.00
37068;BME280;22982;42.848;25.468;2023-02-28T00:22:16;96887.75;;;6.58;100.00
37068;BME280;22982;42.848;25.468;2023-02-28T00:27:18;96888.09;;;6.49;100.00
37068;BME280;22982;42.848;25.468;2023-02-28T00:32:20;96871.06;;;6.39;100.00
37068;BME280;22982;42.848;25.468;2023-02-28T00:37:23;96882.19;;;6.17;100.00
37068;BME280;22982;42.848;25.468;2023-02-28T00:42:25;96884.13;;;6.37;100.00
37068;BME280;22982;42.848;25.468;2023-02-28T00:47:28;96869.34;;;6.38;100.00
37068;BME280;22982;42.848;25.468;2023-02-28T00:52:30;96874.69;;;6.60;100.00
37068;BME280;22982;42.848;25.468;2023-02-28T00:57:33;96866.69;;;6.64;100.00
37068;BME280;22982;42.848;25.468;2023-02-28T01:02:35;96868.31;;;6.68;100.00
37068;BME280;22982;42.848;25.468;2023-02-28T01:07:37;96864.44;;;6.79;100.00
37068;BME280;22982;42.848;25.468;2023-02-28T01:12:40;96835.75;;;6.55;100.00
37068;BME280;22982;42.848;25.468;2023-02-28T01:17:42;96843.59;;;6.28;100.00
37068;BME280;22982;42.848;25.468;2023-02-28T01:22:44;96856.81;;;6.24;100.00
37068;BME280;22982;42.848;25.468;2023-02-28T01:27:47;96859.47;;;6.47;100.00
37068;BME280;22982;42.848;25.468;2023-02-28T01:32:49;96822.94;;;6.49;100.00
37068;BME280;22982;42.848;25.468;2023-02-28T01:37:53;96853.59;;;6.66;100.00
37068;BME280;22982;42.848;25.468;2023-02-28T01:42:55;96848.78;;;6.55;100.00
37068;BME280;22982;42.848;25.468;2023-02-28T01:48:01;96854.25;;;6.73;100.00
37068;BME280;22982;42.848;25.468;2023-02-28T01:53:06;96859.28;;;6.77;100.00
37068;BME280;22982;42.848;25.468;2023-02-28T01:58:11;96850.63;;;6.77;100.00
37068;BME280;22982;42.848;25.468;2023-02-28T02:03:16;96863.28;;;6.87;100.00
37068;BME280;22982;42.848;25.468;2023-02-28T02:08:26;96831.84;;;6.43;100.00
37068;BME280;22982;42.848;25.468;2023-02-28T02:13:43;96871.91;;;6.64;100.00
37068;BME280;22982;42.848;25.468;2023-02-28T02:40:21;96892.00;;;6.86;100.00
37068;BME280;22982;42.848;25.468;2023-02-28T02:45:29;96898.50;;;6.74;100.00
37068;BME280;22982;42.848;25.468;2023-02-28T02:50:41;96905.03;;;6.86;100.00
37068;BME280;22982;42.848;25.468;2023-02-28T02:55:47;96913.53;;;6.91;100.00
37068;BME280;22982;42.848;25.468;2023-02-28T03:01:00;96904.50;;;6.76;100.00
37068;BME280;22982;42.848;25.468;2023-02-28T03:06:05;96893.31;;;6.74;100.00
37068;BME280;22982;42.848;25.468;2023-02-28T03:11:13;96911.16;;;6.85;100.00
37068;BME280;22982;42.848;25.468;2023-02-28T03:27:07;96905.69;;;6.93;100.00
37068;BME280;22982;42.848;25.468;2023-02-28T03:37:46;96882.97;;;6.71;100.00
37068;BME280;22982;42.848;25.468;2023-02-28T03:42:53;96896.06;;;6.69;100.00
37068;BME280;22982;42.848;25.468;2023-02-28T03:53:22;96907.53;;;6.89;100.00
37068;BME280;22982;42.848;25.468;2023-02-28T04:04:00;96912.28;;;6.78;100.00
37068;BME280;22982;42.848;25.468;2023-02-28T04:09:05;96932.63;;;6.92;100.00
37068;BME280;22982;42.848;25.468;2023-02-28T04:14:09;96921.38;;;6.66;100.00
37068;BME280;22982;42.848;25.468;2023-02-28T04:19:13;96909.88;;;6.71;100.00
37068;BME280;22982;42.848;25.468;2023-02-28T04:24:17;96926.25;;;6.75;100.00
37068;BME280;22982;42.848;25.468;2023-02-28T04:29:28;96917.31;;;6.57;100.00
37068;BME280;22982;42.848;25.468;2023-02-28T04:34:31;96923.69;;;6.74;100.00
37068;BME280;22982;42.848;25.468;2023-02-28T04:39:36;96940.59;;;6.37;100.00
37068;BME280;22982;42.848;25.468;2023-02-28T04:44:39;96919.22;;;6.52;100.00
37068;BME280;22982;42.848;25.468;2023-02-28T04:49:41;96916.19;;;6.64;100.00
37068;BME280;22982;42.848;25.468;2023-02-28T04:54:44;96914.88;;;6.53;100.00
37068;BME280;22982;42.848;25.468;2023-02-28T04:59:46;96918.38;;;6.51;100.00
37068;BME280;22982;42.848;25.468;2023-02-28T05:04:48;96931.28;;;6.29;100.00
37068;BME280;22982;42.848;25.468;2023-02-28T05:09:51;96947.09;;;6.50;100.00
37068;BME280;22982;42.848;25.468;2023-02-28T05:14:53;96919.31;;;6.50;100.00
37068;BME280;22982;42.848;25.468;2023-02-28T05:19:55;96918.44;;;6.23;100.00
37068;BME280;22982;42.848;25.468;2023-02-28T05:25:18;96932.16;;;6.28;100.00
37068;BME280;22982;42.848;25.468;2023-02-28T05:30:21;96938.72;;;6.13;100.00
37068;BME280;22982;42.848;25.468;2023-02-28T05:35:24;96945.88;;;6.07;100.00
37068;BME280;22982;42.848;25.468;2023-02-28T05:40:26;96926.78;;;6.35;100.00
37068;BME280;22982;42.848;25.468;2023-02-28T05:45:29;96945.44;;;6.74;100.00
37068;BME280;22982;42.848;25.468;2023-02-28T05:50:31;96938.81;;;6.89;100.00
37068;BME280;22982;42.848;25.468;2023-02-28T05:55:33;96949.84;;;7.21;100.00
37068;BME280;22982;42.848;25.468;2023-02-28T06:00:38;96944.81;;;7.40;100.00
37068;BME280;22982;42.848;25.468;2023-02-28T06:05:43;96947.59;;;7.35;100.00
37068;BME280;22982;42.848;25.468;2023-02-28T06:10:45;96943.34;;;7.33;100.00
37068;BME280;22982;42.848;25.468;2023-02-28T06:15:47;96944.00;;;7.39;100.00
37068;BME280;22982;42.848;25.468;2023-02-28T06:20:53;96955.66;;;7.53;100.00
37068;BME280;22982;42.848;25.468;2023-02-28T06:25:59;96965.66;;;7.65;100.00
37068;BME280;22982;42.848;25.468;2023-02-28T06:31:10;96964.63;;;7.45;100.00
37068;BME280;22982;42.848;25.468;2023-02-28T06:36:14;96956.53;;;7.28;100.00
37068;BME280;22982;42.848;25.468;2023-02-28T06:41:16;96964.16;;;7.34;100.00
37068;BME280;22982;42.848;25.468;2023-02-28T06:46:19;96968.91;;;7.48;100.00
37068;BME280;22982;42.848;25.468;2023-02-28T06:51:21;96966.13;;;7.75;100.00
37068;BME280;22982;42.848;25.468;2023-02-28T06:56:24;96955.97;;;7.91;100.00
37068;BME280;22982;42.848;25.468;2023-02-28T07:01:26;96977.00;;;8.10;100.00
37068;BME280;22982;42.848;25.468;2023-02-28T07:06:30;96967.16;;;8.16;100.00
37068;BME280;22982;42.848;25.468;2023-02-28T07:11:33;96961.38;;;8.30;100.00
37068;BME280;22982;42.848;25.468;2023-02-28T07:16:35;96963.72;;;8.36;100.00
37068;BME280;22982;42.848;25.468;2023-02-28T07:21:37;96959.44;;;8.13;100.00
37068;BME280;22982;42.848;25.468;2023-02-28T07:26:40;96965.47;;;8.15;100.00
37068;BME280;22982;42.848;25.468;2023-02-28T07:31:42;96967.03;;;8.41;100.00
37068;BME280;22982;42.848;25.468;2023-02-28T07:36:45;96954.28;;;8.34;100.00
37068;BME280;22982;42.848;25.468;2023-02-28T07:41:47;96966.69;;;8.51;100.00
37068;BME280;22982;42.848;25.468;2023-02-28T07:46:50;96961.66;;;8.46;100.00
37068;BME280;22982;42.848;25.468;2023-02-28T07:51:52;96971.91;;;8.51;100.00
37068;BME280;22982;42.848;25.468;2023-02-28T07:56:54;96995.13;;;8.58;100.00
37068;BME280;22982;42.848;25.468;2023-02-28T08:01:57;96988.13;;;8.59;100.00
37068;BME280;22982;42.848;25.468;2023-02-28T08:07:01;96988.31;;;8.76;100.00
37068;BME280;22982;42.848;25.468;2023-02-28T08:12:03;96975.81;;;8.83;100.00
37068;BME280;22982;42.848;25.468;2023-02-28T08:17:06;96974.38;;;8.96;100.00
37068;BME280;22982;42.848;25.468;2023-02-28T08:22:08;96976.59;;;9.06;100.00
37068;BME280;22982;42.848;25.468;2023-02-28T08:27:10;96958.41;;;9.03;100.00
37068;BME280;22982;42.848;25.468;2023-02-28T08:32:13;96990.38;;;9.30;100.00
37068;BME280;22982;42.848;25.468;2023-02-28T08:37:29;96991.28;;;9.49;100.00
37068;BME280;22982;42.848;25.468;2023-02-28T08:42:32;96998.53;;;9.43;100.00
37068;BME280;22982;42.848;25.468;2023-02-28T08:47:34;96981.31;;;9.18;100.00
37068;BME280;22982;42.848;25.468;2023-02-28T08:52:37;97000.16;;;9.06;100.00
37068;BME280;22982;42.848;25.468;2023-02-28T08:57:40;96982.66;;;8.65;100.00
37068;BME280;22982;42.848;25.468;2023-02-28T09:02:42;96993.63;;;8.53;100.00
37068;BME280;22982;42.848;25.468;2023-02-28T09:07:45;96970.34;;;8.47;100.00
37068;BME280;22982;42.848;25.468;2023-02-28T09:12:47;97012.75;;;8.53;100.00
37068;BME280;22982;42.848;25.468;2023-02-28T09:17:50;96992.22;;;8.44;100.00
37068;BME280;22982;42.848;25.468;2023-02-28T09:22:52;97003.13;;;8.32;100.00
37068;BME280;22982;42.848;25.468;2023-02-28T09:27:55;97004.38;;;8.45;100.00
37068;BME280;22982;42.848;25.468;2023-02-28T09:32:57;97019.34;;;8.40;100.00
37068;BME280;22982;42.848;25.468;2023-02-28T09:37:59;97030.41;;;8.48;100.00
37068;BME280;22982;42.848;25.468;2023-02-28T09:43:05;97006.50;;;8.57;100.00
37068;BME280;22982;42.848;25.468;2023-02-28T09:48:27;96987.97;;;8.84;100.00
37068;BME280;22982;42.848;25.468;2023-02-28T09:53:34;97004.06;;;9.36;100.00
37068;BME280;22982;42.848;25.468;2023-02-28T09:58:46;97006.78;;;9.54;100.00
37068;BME280;22982;42.848;25.468;2023-02-28T10:03:56;96991.38;;;9.27;100.00
37068;BME280;22982;42.848;25.468;2023-02-28T10:09:26;97005.91;;;9.34;100.00
37068;BME280;22982;42.848;25.468;2023-02-28T10:14:33;96998.03;;;9.34;100.00
37068;BME280;22982;42.848;25.468;2023-02-28T10:24:54;96979.41;;;8.80;100.00
37068;BME280;22982;42.848;25.468;2023-02-28T10:30:01;96977.97;;;8.73;100.00
37068;BME280;22982;42.848;25.468;2023-02-28T10:35:18;96981.31;;;8.77;100.00
37068;BME280;22982;42.848;25.468;2023-02-28T10:40:29;96947.09;;;8.39;100.00
37068;BME280;22982;42.848;25.468;2023-02-28T10:45:34;96989.75;;;8.61;100.00
37068;BME280;22982;42.848;25.468;2023-02-28T10:55:45;96983.22;;;7.83;100.00
37068;BME280;22982;42.848;25.468;2023-02-28T11:00:58;96979.09;;;7.78;100.00
37068;BME280;22982;42.848;25.468;2023-02-28T11:06:07;96985.56;;;7.67;100.00
37068;BME280;22982;42.848;25.468;2023-02-28T11:11:10;96977.47;;;7.97;100.00
37068;BME280;22982;42.848;25.468;2023-02-28T11:16:14;96977.75;;;8.13;100.00
37068;BME280;22982;42.848;25.468;2023-02-28T11:26:42;96978.59;;;7.68;100.00
37068;BME280;22982;42.848;25.468;2023-02-28T11:32:11;96976.19;;;7.38;100.00
37068;BME280;22982;42.848;25.468;2023-02-28T11:37:17;96969.03;;;7.20;100.00
37068;BME280;22982;42.848;25.468;2023-02-28T11:47:48;96950.50;;;6.77;100.00
37068;BME280;22982;42.848;25.468;2023-02-28T11:52:59;96957.72;;;6.96;100.00
37068;BME280;22982;42.848;25.468;2023-02-28T11:58:30;96968.81;;;7.01;100.00
37068;BME280;22982;42.848;25.468;2023-02-28T12:03:53;96961.25;;;7.18;100.00
37068;BME280;22982;42.848;25.468;2023-02-28T12:20:17;96946.25;;;7.25;100.00
37068;BME280;22982;42.848;25.468;2023-02-28T12:25:49;96965.41;;;7.24;100.00
37068;BME280;22982;42.848;25.468;2023-02-28T12:31:03;96950.47;;;7.04;100.00
37068;BME280;22982;42.848;25.468;2023-02-28T12:36:11;96961.88;;;7.01;100.00
37068;BME280;22982;42.848;25.468;2023-02-28T12:41:25;96939.63;;;6.91;100.00
37068;BME280;22982;42.848;25.468;2023-02-28T12:46:34;96967.88;;;7.03;100.00
37068;BME280;22982;42.848;25.468;2023-02-28T12:51:39;96947.22;;;6.97;100.00
37068;BME280;22982;42.848;25.468;2023-02-28T13:13:04;96973.50;;;6.91;100.00
37068;BME280;22982;42.848;25.468;2023-02-28T13:18:30;96960.19;;;6.99;100.00
37068;BME280;22982;42.848;25.468;2023-02-28T13:34:15;96959.25;;;7.01;100.00
37068;BME280;22982;42.848;25.468;2023-02-28T13:50:21;96959.69;;;6.89;100.00
37068;BME280;22982;42.848;25.468;2023-02-28T13:55:37;96940.97;;;6.78;100.00
37068;BME280;22982;42.848;25.468;2023-02-28T14:06:22;96952.22;;;7.03;100.00
37068;BME280;22982;42.848;25.468;2023-02-28T14:11:30;96949.44;;;7.08;100.00
37068;BME280;22982;42.848;25.468;2023-02-28T14:16:45;96947.22;;;6.97;100.00
37068;BME280;22982;42.848;25.468;2023-02-28T14:32:54;96957.72;;;6.70;100.00
37068;BME280;22982;42.848;25.468;2023-02-28T14:38:05;96969.34;;;6.60;100.00
37068;BME280;22982;42.848;25.468;2023-02-28T14:43:21;96974.38;;;6.40;100.00
37068;BME280;22982;42.848;25.468;2023-02-28T14:48:24;96961.81;;;6.24;100.00
37068;BME280;22982;42.848;25.468;2023-02-28T14:53:30;96979.66;;;6.37;100.00
37068;BME280;22982;42.848;25.468;2023-02-28T14:58:37;96986.56;;;6.38;100.00
37068;BME280;22982;42.848;25.468;2023-02-28T15:03:39;96984.16;;;6.31;100.00
37068;BME280;22982;42.848;25.468;2023-02-28T15:08:44;96984.69;;;6.41;100.00
37068;BME280;22982;42.848;25.468;2023-02-28T15:13:53;96940.78;;;6.04;100.00
37068;BME280;22982;42.848;25.468;2023-02-28T15:29:42;96987.25;;;6.43;100.00
37068;BME280;22982;42.848;25.468;2023-02-28T15:34:45;96975.69;;;6.25;100.00
37068;BME280;22982;42.848;25.468;2023-02-28T15:39:48;96997.59;;;6.46;100.00
37068;BME280;22982;42.848;25.468;2023-02-28T15:44:50;96988.75;;;6.23;100.00
37068;BME280;22982;42.848;25.468;2023-02-28T15:50:02;96980.13;;;6.21;100.00
37068;BME280;22982;42.848;25.468;2023-02-28T15:55:24;97006.03;;;6.26;100.00
37068;BME280;22982;42.848;25.468;2023-02-28T16:00:29;97013.63;;;6.33;100.00
37068;BME280;22982;42.848;25.468;2023-02-28T16:05:34;97022.53;;;6.26;100.00
37068;BME280;22982;42.848;25.468;2023-02-28T16:10:37;97014.09;;;6.18;100.00
37068;BME280;22982;42.848;25.468;2023-02-28T16:15:42;97022.72;;;6.20;100.00
37068;BME280;22982;42.848;25.468;2023-02-28T16:20:45;97024.59;;;6.15;100.00
37068;BME280;22982;42.848;25.468;2023-02-28T16:25:47;97016.88;;;6.12;100.00
37068;BME280;22982;42.848;25.468;2023-02-28T16:30:53;97009.50;;;5.98;100.00
37068;BME280;22982;42.848;25.468;2023-02-28T16:35:56;97030.09;;;6.06;100.00
37068;BME280;22982;42.848;25.468;2023-02-28T16:40:59;97031.66;;;6.11;100.00
37068;BME280;22982;42.848;25.468;2023-02-28T16:46:02;97032.34;;;6.18;100.00
37068;BME280;22982;42.848;25.468;2023-02-28T16:51:15;97045.16;;;6.24;100.00
37068;BME280;22982;42.848;25.468;2023-02-28T16:56:20;97001.63;;;6.00;100.00
37068;BME280;22982;42.848;25.468;2023-02-28T17:01:23;97034.03;;;5.89;100.00
37068;BME280;22982;42.848;25.468;2023-02-28T17:06:27;97034.72;;;5.96;100.00
37068;BME280;22982;42.848;25.468;2023-02-28T17:11:31;97007.28;;;6.14;100.00
37068;BME280;22982;42.848;25.468;2023-02-28T17:16:35;97016.31;;;6.30;100.00
37068;BME280;22982;42.848;25.468;2023-02-28T17:21:39;97018.41;;;6.19;100.00
37068;BME280;22982;42.848;25.468;2023-02-28T17:26:43;97032.06;;;5.98;100.00
37068;BME280;22982;42.848;25.468;2023-02-28T17:31:46;97034.03;;;5.89;100.00
37068;BME280;22982;42.848;25.468;2023-02-28T17:36:50;97037.75;;;6.10;100.00
37068;BME280;22982;42.848;25.468;2023-02-28T17:41:54;97038.91;;;6.02;100.00
37068;BME280;22982;42.848;25.468;2023-02-28T17:46:57;97025.56;;;6.12;100.00
37068;BME280;22982;42.848;25.468;2023-02-28T17:51:59;97015.06;;;6.14;100.00
37068;BME280;22982;42.848;25.468;2023-02-28T17:57:01;97032.13;;;6.24;100.00
37068;BME280;22982;42.848;25.468;2023-02-28T18:02:03;97035.78;;;6.19;100.00
37068;BME280;22982;42.848;25.468;2023-02-28T18:07:09;97048.00;;;6.17;100.00
37068;BME280;22982;42.848;25.468;2023-02-28T18:12:13;97025.44;;;6.16;100.00
37068;BME280;22982;42.848;25.468;2023-02-28T18:17:15;97028.38;;;6.05;100.00
37068;BME280;22982;42.848;25.468;2023-02-28T18:22:18;97040.78;;;5.97;100.00
37068;BME280;22982;42.848;25.468;2023-02-28T18:27:20;97033.44;;;5.80;100.00
37068;BME280;22982;42.848;25.468;2023-02-28T18:32:22;97014.00;;;5.91;100.00
37068;BME280;22982;42.848;25.468;2023-02-28T18:37:25;97019.25;;;5.90;100.00
37068;BME280;22982;42.848;25.468;2023-02-28T18:42:28;97028.28;;;6.08;100.00
37068;BME280;22982;42.848;25.468;2023-02-28T18:47:31;97018.25;;;5.94;100.00
37068;BME280;22982;42.848;25.468;2023-02-28T18:52:33;97029.91;;;6.12;100.00
37068;BME280;22982;42.848;25.468;2023-02-28T18:57:35;97021.38;;;6.07;100.00
37068;BME280;22982;42.848;25.468;2023-02-28T19:02:38;97004.81;;;6.09;100.00
37068;BME280;22982;42.848;25.468;2023-02-28T19:07:40;97005.66;;;6.10;100.00
37068;BME280;22982;42.848;25.468;2023-02-28T19:12:43;97003.34;;;6.01;100.00
37068;BME280;22982;42.848;25.468;2023-02-28T19:17:45;97006.66;;;6.06;100.00
37068;BME280;22982;42.848;25.468;2023-02-28T19:22:47;96993.66;;;6.06;100.00
37068;BME280;22982;42.848;25.468;2023-02-28T19:27:54;97000.28;;;6.16;100.00
37068;BME280;22982;42.848;25.468;2023-02-28T19:32:57;97000.97;;;6.21;100.00
37068;BME280;22982;42.848;25.468;2023-02-28T19:37:59;96986.88;;;6.00;100.00
37068;BME280;22982;42.848;25.468;2023-02-28T19:43:02;96993.25;;;5.88;100.00
37068;BME280;22982;42.848;25.468;2023-02-28T19:48:06;96995.69;;;5.94;100.00
37068;BME280;22982;42.848;25.468;2023-02-28T19:53:10;97003.75;;;5.85;100.00
37068;BME280;22982;42.848;25.468;2023-02-28T19:58:13;96998.25;;;5.66;100.00
37068;BME280;22982;42.848;25.468;2023-02-28T20:03:15;96998.13;;;5.71;100.00
37068;BME280;22982;42.848;25.468;2023-02-28T20:08:19;97002.16;;;5.81;100.00
37068;BME280;22982;42.848;25.468;2023-02-28T20:13:21;97009.69;;;5.90;100.00
37068;BME280;22982;42.848;25.468;2023-02-28T20:18:29;97001.75;;;5.97;100.00
37068;BME280;22982;42.848;25.468;2023-02-28T20:23:31;96992.03;;;5.72;100.00
37068;BME280;22982;42.848;25.468;2023-02-28T20:28:34;97003.72;;;5.87;100.00
37068;BME280;22982;42.848;25.468;2023-02-28T20:33:37;96994.66;;;5.70;100.00
37068;BME280;22982;42.848;25.468;2023-02-28T20:38:39;96997.19;;;5.73;100.00
37068;BME280;22982;42.848;25.468;2023-02-28T20:43:42;96987.94;;;5.33;100.00
37068;BME280;22982;42.848;25.468;2023-02-28T20:48:45;96985.28;;;5.35;100.00
37068;BME280;22982;42.848;25.468;2023-02-28T20:53:47;96996.00;;;5.54;100.00
37068;BME280;22982;42.848;25.468;2023-02-28T20:58:52;96993.28;;;5.59;100.00
37068;BME280;22982;42.848;25.468;2023-02-28T21:03:59;96995.09;;;5.56;100.00
37068;BME280;22982;42.848;25.468;2023-02-28T21:09:07;96988.44;;;5.46;100.00
37068;BME280;22982;42.848;25.468;2023-02-28T21:14:13;96994.75;;;5.37;100.00
37068;BME280;22982;42.848;25.468;2023-02-28T21:19:16;96985.63;;;5.23;100.00
37068;BME280;22982;42.848;25.468;2023-02-28T21:24:19;97001.81;;;5.32;100.00
37068;BME280;22982;42.848;25.468;2023-02-28T21:29:22;96997.78;;;5.22;100.00
37068;BME280;22982;42.848;25.468;2023-02-28T21:34:24;96999.44;;;5.25;100.00
37068;BME280;22982;42.848;25.468;2023-02-28T21:39:29;96982.25;;;5.19;100.00
37068;BME280;22982;42.848;25.468;2023-02-28T21:44:31;96981.09;;;5.29;100.00
37068;BME280;22982;42.848;25.468;2023-02-28T21:49:35;96981.78;;;5.36;100.00
37068;BME280;22982;42.848;25.468;2023-02-28T21:54:40;96977.13;;;5.47;100.00
37068;BME280;22982;42.848;25.468;2023-02-28T21:59:42;96988.44;;;5.46;100.00
37068;BME280;22982;42.848;25.468;2023-02-28T22:04:44;96987.34;;;5.53;100.00
37068;BME280;22982;42.848;25.468;2023-02-28T22:09:46;96996.31;;;5.43;100.00
37068;BME280;22982;42.848;25.468;2023-02-28T22:14:49;96978.44;;;5.31;100.00
37068;BME280;22982;42.848;25.468;2023-02-28T22:19:51;97002.56;;;5.36;100.00
37068;BME280;22982;42.848;25.468;2023-02-28T22:24:53;97004.97;;;5.44;100.00
37068;BME280;22982;42.848;25.468;2023-02-28T22:29:56;97008.78;;;5.32;100.00
37068;BME280;22982;42.848;25.468;2023-02-28T22:34:59;97004.63;;;5.25;100.00
37068;BME280;22982;42.848;25.468;2023-02-28T22:40:01;97013.00;;;5.03;100.00
37068;BME280;22982;42.848;25.468;2023-02-28T22:45:04;96996.19;;;4.84;100.00
37068;BME280;22982;42.848;25.468;2023-02-28T22:50:07;97003.50;;;5.02;100.00
37068;BME280;22982;42.848;25.468;2023-02-28T22:55:09;97018.22;;;5.03;100.00
37068;BME280;22982;42.848;25.468;2023-02-28T23:00:12;97005.22;;;5.03;100.00
37068;BME280;22982;42.848;25.468;2023-02-28T23:05:16;96970.41;;;4.76;100.00
37068;BME280;22982;42.848;25.468;2023-02-28T23:10:19;97000.59;;;4.80;100.00
37068;BME280;22982;42.848;25.468;2023-02-28T23:15:22;97008.94;;;4.93;100.00
37068;BME280;22982;42.848;25.468;2023-02-28T23:20:24;96984.63;;;4.95;100.00
37068;BME280;22982;42.848;25.468;2023-02-28T23:25:26;96986.13;;;5.04;100.00
37068;BME280;22982;42.848;25.468;2023-02-28T23:30:28;96969.50;;;5.10;100.00
37068;BME280;22982;42.848;25.468;2023-02-28T23:35:32;96971.41;;;5.03;100.00
37068;BME280;22982;42.848;25.468;2023-02-28T23:40:36;96968.03;;;4.99;100.00
37068;BME280;22982;42.848;25.468;2023-02-28T23:45:38;96968.81;;;5.03;100.00
37068;BME280;22982;42.848;25.468;2023-02-28T23:50:41;96959.25;;;5.04;100.00
37068;BME280;22982;42.848;25.468;2023-02-28T23:55:45;96956.88;;;4.96;100.00
